sensor_id;sensor_type;location;lat;lon;timestamp;pressure;altitude;pressure_sealevel;temperature;humidity
39141;BME280;24875;48.436;10.298;2023-06-26T00:01:34;96301.53;;;18.05;88.64
39141;BME280;24875;48.436;10.298;2023-06-26T00:04:01;96296.47;;;17.79;89.10
39141;BME280;24875;48.436;10.298;2023-06-26T00:06:27;96297.16;;;17.69;89.21
39141;BME280;24875;48.436;10.298;2023-06-26T00:08:55;96301.53;;;17.63;89.72
39141;BME280;24875;48.436;10.298;2023-06-26T00:11:22;96297.28;;;17.56;90.37
39141;BME280;24875;48.436;10.298;2023-06-26T00:13:49;96301.03;;;17.48;91.16
39141;BME280;24875;48.436;10.298;2023-06-26T00:16:15;96303.75;;;17.42;90.84
39141;BME280;24875;48.436;10.298;2023-06-26T00:18:43;96302.47;;;17.51;90.88
39141;BME280;24875;48.436;10.298;2023-06-26T00:21:10;96306.03;;;17.38;91.05
39141;BME280;24875;48.436;10.298;2023-06-26T00:23:36;96313.41;;;17.43;90.65
39141;BME280;24875;48.436;10.298;2023-06-26T00:26:03;96305.22;;;17.38;91.28
39141;BME280;24875;48.436;10.298;2023-06-26T00:28:29;96308.16;;;17.30;92.13
39141;BME280;24875;48.436;10.298;2023-06-26T00:30:55;96309.38;;;17.34;92.34
39141;BME280;24875;48.436;10.298;2023-06-26T00:33:22;96305.00;;;17.39;92.01
39141;BME280;24875;48.436;10.298;2023-06-26T00:35:50;96301.25;;;17.47;90.75
39141;BME280;24875;48.436;10.298;2023-06-26T00:38:16;96314.75;;;17.21;91.03
39141;BME280;24875;48.436;10.298;2023-06-26T00:40:43;96304.91;;;17.21;90.87
39141;BME280;24875;48.436;10.298;2023-06-26T00:43:09;96306.56;;;17.22;90.79
39141;BME280;24875;48.436;10.298;2023-06-26T00:45:36;96307.00;;;17.13;90.77
39141;BME280;24875;48.436;10.298;2023-06-26T00:48:02;96312.28;;;17.19;90.68
39141;BME280;24875;48.436;10.298;2023-06-26T00:50:29;96305.53;;;17.17;91.11
39141;BME280;24875;48.436;10.298;2023-06-26T00:52:57;96305.69;;;17.28;91.40
39141;BME280;24875;48.436;10.298;2023-06-26T00:55:25;96311.47;;;17.25;90.16
39141;BME280;24875;48.436;10.298;2023-06-26T00:57:52;96312.16;;;17.14;90.03
39141;BME280;24875;48.436;10.298;2023-06-26T01:00:19;96301.63;;;17.19;90.75
39141;BME280;24875;48.436;10.298;2023-06-26T01:02:45;96300.25;;;17.10;91.04
39141;BME280;24875;48.436;10.298;2023-06-26T01:05:12;96301.91;;;17.11;90.74
39141;BME280;24875;48.436;10.298;2023-06-26T01:07:46;96298.84;;;17.14;91.00
39141;BME280;24875;48.436;10.298;2023-06-26T01:10:14;96302.13;;;17.10;92.06
39141;BME280;24875;48.436;10.298;2023-06-26T01:12:41;96307.44;;;17.10;92.13
39141;BME280;24875;48.436;10.298;2023-06-26T01:15:09;96298.47;;;17.05;90.76
39141;BME280;24875;48.436;10.298;2023-06-26T01:17:37;96301.38;;;17.03;92.37
39141;BME280;24875;48.436;10.298;2023-06-26T01:20:05;96298.22;;;17.12;92.28
39141;BME280;24875;48.436;10.298;2023-06-26T01:22:37;96301.31;;;17.09;92.77
39141;BME280;24875;48.436;10.298;2023-06-26T01:25:15;96293.56;;;17.02;93.29
39141;BME280;24875;48.436;10.298;2023-06-26T01:27:46;96294.56;;;17.07;92.45
39141;BME280;24875;48.436;10.298;2023-06-26T01:30:13;96296.94;;;16.91;91.65
39141;BME280;24875;48.436;10.298;2023-06-26T01:32:42;96297.50;;;16.93;91.96
39141;BME280;24875;48.436;10.298;2023-06-26T01:35:11;96292.72;;;16.77;93.02
39141;BME280;24875;48.436;10.298;2023-06-26T01:37:37;96289.75;;;16.54;94.91
39141;BME280;24875;48.436;10.298;2023-06-26T01:40:05;96284.38;;;16.67;94.96
39141;BME280;24875;48.436;10.298;2023-06-26T01:42:31;96284.50;;;16.41;96.06
39141;BME280;24875;48.436;10.298;2023-06-26T01:45:00;96281.13;;;16.58;95.45
39141;BME280;24875;48.436;10.298;2023-06-26T01:47:28;96281.97;;;16.59;95.23
39141;BME280;24875;48.436;10.298;2023-06-26T01:50:02;96283.09;;;16.76;94.49
39141;BME280;24875;48.436;10.298;2023-06-26T01:52:35;96283.06;;;16.82;93.74
39141;BME280;24875;48.436;10.298;2023-06-26T01:55:12;96278.56;;;16.83;94.18
39141;BME280;24875;48.436;10.298;2023-06-26T01:57:41;96281.03;;;16.78;93.34
39141;BME280;24875;48.436;10.298;2023-06-26T02:00:11;96279.09;;;16.60;93.10
39141;BME280;24875;48.436;10.298;2023-06-26T02:02:40;96278.91;;;16.55;94.80
39141;BME280;24875;48.436;10.298;2023-06-26T02:05:07;96280.00;;;16.42;96.71
39141;BME280;24875;48.436;10.298;2023-06-26T02:07:34;96285.72;;;16.45;93.83
39141;BME280;24875;48.436;10.298;2023-06-26T02:10:00;96285.59;;;16.27;93.55
39141;BME280;24875;48.436;10.298;2023-06-26T02:12:27;96287.00;;;16.23;96.14
39141;BME280;24875;48.436;10.298;2023-06-26T02:14:53;96289.03;;;16.34;94.61
39141;BME280;24875;48.436;10.298;2023-06-26T02:17:21;96287.31;;;16.52;94.26
39141;BME280;24875;48.436;10.298;2023-06-26T02:19:48;96280.78;;;16.48;93.93
39141;BME280;24875;48.436;10.298;2023-06-26T02:22:14;96279.41;;;16.40;94.56
39141;BME280;24875;48.436;10.298;2023-06-26T02:24:41;96280.56;;;16.50;94.37
39141;BME280;24875;48.436;10.298;2023-06-26T02:27:08;96283.66;;;16.41;95.84
39141;BME280;24875;48.436;10.298;2023-06-26T02:29:34;96286.91;;;16.49;93.81
39141;BME280;24875;48.436;10.298;2023-06-26T02:32:01;96284.47;;;16.48;93.90
39141;BME280;24875;48.436;10.298;2023-06-26T02:34:29;96278.28;;;16.60;93.62
39141;BME280;24875;48.436;10.298;2023-06-26T02:36:55;96287.72;;;16.49;93.72
39141;BME280;24875;48.436;10.298;2023-06-26T02:39:23;96288.81;;;16.42;92.98
39141;BME280;24875;48.436;10.298;2023-06-26T02:41:50;96290.75;;;16.03;96.30
39141;BME280;24875;48.436;10.298;2023-06-26T02:44:16;96288.88;;;16.10;95.90
39141;BME280;24875;48.436;10.298;2023-06-26T02:46:43;96294.97;;;16.36;95.02
39141;BME280;24875;48.436;10.298;2023-06-26T02:49:10;96288.25;;;16.27;94.73
39141;BME280;24875;48.436;10.298;2023-06-26T02:51:38;96287.19;;;16.35;95.03
39141;BME280;24875;48.436;10.298;2023-06-26T02:54:04;96285.38;;;16.22;95.36
39141;BME280;24875;48.436;10.298;2023-06-26T02:56:32;96290.03;;;16.40;92.79
39141;BME280;24875;48.436;10.298;2023-06-26T02:58:58;96287.97;;;16.42;92.78
39141;BME280;24875;48.436;10.298;2023-06-26T03:01:25;96288.81;;;16.42;92.25
39141;BME280;24875;48.436;10.298;2023-06-26T03:03:51;96287.34;;;16.46;92.92
39141;BME280;24875;48.436;10.298;2023-06-26T03:06:18;96286.16;;;16.42;92.59
39141;BME280;24875;48.436;10.298;2023-06-26T03:08:45;96287.94;;;16.48;91.67
39141;BME280;24875;48.436;10.298;2023-06-26T03:11:12;96284.56;;;16.22;92.61
39141;BME280;24875;48.436;10.298;2023-06-26T03:13:38;96287.84;;;16.17;93.80
39141;BME280;24875;48.436;10.298;2023-06-26T03:16:05;96275.97;;;16.26;94.00
39141;BME280;24875;48.436;10.298;2023-06-26T03:18:31;96273.09;;;16.21;94.59
39141;BME280;24875;48.436;10.298;2023-06-26T03:20:58;96278.41;;;16.21;93.45
39141;BME280;24875;48.436;10.298;2023-06-26T03:23:24;96269.63;;;16.27;93.51
39141;BME280;24875;48.436;10.298;2023-06-26T03:25:53;96272.47;;;16.32;93.15
39141;BME280;24875;48.436;10.298;2023-06-26T03:28:19;96276.81;;;16.07;93.86
39141;BME280;24875;48.436;10.298;2023-06-26T03:30:45;96273.13;;;16.08;94.44
39141;BME280;24875;48.436;10.298;2023-06-26T03:33:12;96276.78;;;16.20;93.22
39141;BME280;24875;48.436;10.298;2023-06-26T03:35:38;96275.38;;;16.11;93.58
39141;BME280;24875;48.436;10.298;2023-06-26T03:38:05;96283.53;;;16.16;93.71
39141;BME280;24875;48.436;10.298;2023-06-26T03:40:31;96287.88;;;16.04;93.83
39141;BME280;24875;48.436;10.298;2023-06-26T03:42:59;96283.13;;;16.19;95.48
39141;BME280;24875;48.436;10.298;2023-06-26T03:45:26;96286.44;;;16.08;95.84
39141;BME280;24875;48.436;10.298;2023-06-26T03:47:52;96274.97;;;16.14;96.42
39141;BME280;24875;48.436;10.298;2023-06-26T03:50:19;96286.78;;;16.25;96.39
39141;BME280;24875;48.436;10.298;2023-06-26T03:52:46;96277.84;;;16.13;95.81
39141;BME280;24875;48.436;10.298;2023-06-26T03:55:12;96285.38;;;16.22;95.09
39141;BME280;24875;48.436;10.298;2023-06-26T03:57:39;96282.72;;;16.22;95.38
39141;BME280;24875;48.436;10.298;2023-06-26T04:00:08;96285.53;;;16.40;95.18
39141;BME280;24875;48.436;10.298;2023-06-26T04:02:36;96293.59;;;16.14;96.06
39141;BME280;24875;48.436;10.298;2023-06-26T04:05:03;96289.75;;;15.97;98.57
39141;BME280;24875;48.436;10.298;2023-06-26T04:07:30;96293.13;;;16.24;97.74
39141;BME280;24875;48.436;10.298;2023-06-26T04:09:57;96290.09;;;16.27;97.76
39141;BME280;24875;48.436;10.298;2023-06-26T04:12:23;96284.94;;;16.32;97.59
39141;BME280;24875;48.436;10.298;2023-06-26T04:14:50;96292.66;;;16.52;97.11
39141;BME280;24875;48.436;10.298;2023-06-26T04:17:17;96293.78;;;16.69;97.28
39141;BME280;24875;48.436;10.298;2023-06-26T04:19:44;96301.19;;;16.61;97.76
39141;BME280;24875;48.436;10.298;2023-06-26T04:22:11;96306.69;;;16.66;98.00
39141;BME280;24875;48.436;10.298;2023-06-26T04:24:37;96306.88;;;16.71;97.81
39141;BME280;24875;48.436;10.298;2023-06-26T04:27:04;96308.06;;;16.75;99.17
39141;BME280;24875;48.436;10.298;2023-06-26T04:29:31;96308.44;;;16.85;98.75
39141;BME280;24875;48.436;10.298;2023-06-26T04:31:57;96299.78;;;16.96;99.08
39141;BME280;24875;48.436;10.298;2023-06-26T04:34:25;96306.66;;;17.09;97.05
39141;BME280;24875;48.436;10.298;2023-06-26T04:36:52;96313.16;;;17.13;94.91
39141;BME280;24875;48.436;10.298;2023-06-26T04:39:18;96302.69;;;17.18;94.42
39141;BME280;24875;48.436;10.298;2023-06-26T04:41:45;96304.22;;;17.39;94.66
39141;BME280;24875;48.436;10.298;2023-06-26T04:44:12;96300.59;;;17.51;94.77
39141;BME280;24875;48.436;10.298;2023-06-26T04:46:38;96305.06;;;17.57;93.27
39141;BME280;24875;48.436;10.298;2023-06-26T04:49:06;96316.84;;;17.68;92.85
39141;BME280;24875;48.436;10.298;2023-06-26T04:51:34;96305.66;;;17.83;91.62
39141;BME280;24875;48.436;10.298;2023-06-26T04:54:05;96308.97;;;17.79;90.50
39141;BME280;24875;48.436;10.298;2023-06-26T04:56:32;96308.41;;;17.95;90.55
39141;BME280;24875;48.436;10.298;2023-06-26T04:58:59;96299.66;;;18.06;89.61
39141;BME280;24875;48.436;10.298;2023-06-26T05:01:25;96306.19;;;18.10;87.22
39141;BME280;24875;48.436;10.298;2023-06-26T05:03:54;96303.78;;;18.26;87.69
39141;BME280;24875;48.436;10.298;2023-06-26T05:06:21;96298.59;;;18.31;85.85
39141;BME280;24875;48.436;10.298;2023-06-26T05:08:49;96301.16;;;18.55;83.23
39141;BME280;24875;48.436;10.298;2023-06-26T05:11:15;96302.63;;;18.69;84.79
39141;BME280;24875;48.436;10.298;2023-06-26T05:13:41;96295.47;;;18.81;85.23
39141;BME280;24875;48.436;10.298;2023-06-26T05:16:08;96302.03;;;18.85;83.07
39141;BME280;24875;48.436;10.298;2023-06-26T05:18:35;96298.56;;;18.96;82.81
39141;BME280;24875;48.436;10.298;2023-06-26T05:21:02;96297.59;;;19.08;81.13
39141;BME280;24875;48.436;10.298;2023-06-26T05:23:31;96299.63;;;19.36;77.23
39141;BME280;24875;48.436;10.298;2023-06-26T05:25:59;96298.38;;;19.50;78.86
39141;BME280;24875;48.436;10.298;2023-06-26T05:28:27;96300.22;;;19.38;78.53
39141;BME280;24875;48.436;10.298;2023-06-26T05:30:56;96294.44;;;19.52;77.31
39141;BME280;24875;48.436;10.298;2023-06-26T05:33:25;96297.72;;;19.65;78.04
39141;BME280;24875;48.436;10.298;2023-06-26T05:35:52;96303.50;;;19.62;76.13
39141;BME280;24875;48.436;10.298;2023-06-26T05:38:19;96289.84;;;19.82;77.80
39141;BME280;24875;48.436;10.298;2023-06-26T05:40:46;96293.81;;;20.02;77.52
39141;BME280;24875;48.436;10.298;2023-06-26T05:43:14;96297.41;;;19.96;76.59
39141;BME280;24875;48.436;10.298;2023-06-26T05:45:41;96295.31;;;19.98;76.99
39141;BME280;24875;48.436;10.298;2023-06-26T05:48:07;96294.09;;;19.83;75.68
39141;BME280;24875;48.436;10.298;2023-06-26T05:50:34;96295.88;;;19.89;76.74
39141;BME280;24875;48.436;10.298;2023-06-26T05:53:01;96292.03;;;19.85;78.19
39141;BME280;24875;48.436;10.298;2023-06-26T05:55:29;96291.22;;;19.96;77.02
39141;BME280;24875;48.436;10.298;2023-06-26T05:57:57;96295.78;;;19.95;76.80
39141;BME280;24875;48.436;10.298;2023-06-26T06:00:27;96294.00;;;20.12;76.38
39141;BME280;24875;48.436;10.298;2023-06-26T06:02:54;96292.06;;;20.08;78.05
39141;BME280;24875;48.436;10.298;2023-06-26T06:05:20;96289.94;;;20.21;77.15
39141;BME280;24875;48.436;10.298;2023-06-26T06:07:47;96284.75;;;20.54;76.87
39141;BME280;24875;48.436;10.298;2023-06-26T06:10:13;96290.31;;;20.64;76.99
39141;BME280;24875;48.436;10.298;2023-06-26T06:12:40;96283.66;;;20.66;76.83
39141;BME280;24875;48.436;10.298;2023-06-26T06:15:07;96291.81;;;20.71;76.46
39141;BME280;24875;48.436;10.298;2023-06-26T06:17:35;96283.19;;;21.08;74.86
39141;BME280;24875;48.436;10.298;2023-06-26T06:20:02;96287.81;;;21.13;74.72
39141;BME280;24875;48.436;10.298;2023-06-26T06:22:29;96289.63;;;21.24;74.95
39141;BME280;24875;48.436;10.298;2023-06-26T06:24:55;96293.69;;;21.26;74.01
39141;BME280;24875;48.436;10.298;2023-06-26T06:27:22;96301.59;;;21.49;73.02
39141;BME280;24875;48.436;10.298;2023-06-26T06:29:48;96295.94;;;21.62;73.82
39141;BME280;24875;48.436;10.298;2023-06-26T06:32:15;96294.41;;;21.66;71.54
39141;BME280;24875;48.436;10.298;2023-06-26T06:34:42;96298.38;;;21.80;70.82
39141;BME280;24875;48.436;10.298;2023-06-26T06:37:09;96296.41;;;21.92;71.24
39141;BME280;24875;48.436;10.298;2023-06-26T06:39:35;96287.78;;;22.06;74.28
39141;BME280;24875;48.436;10.298;2023-06-26T06:42:02;96285.47;;;22.14;70.06
39141;BME280;24875;48.436;10.298;2023-06-26T06:44:28;96289.25;;;22.13;70.34
39141;BME280;24875;48.436;10.298;2023-06-26T06:46:55;96290.13;;;22.35;71.12
39141;BME280;24875;48.436;10.298;2023-06-26T06:49:22;96281.38;;;22.45;70.58
39141;BME280;24875;48.436;10.298;2023-06-26T06:51:49;96287.81;;;22.65;70.09
39141;BME280;24875;48.436;10.298;2023-06-26T06:54:16;96289.66;;;22.86;69.14
39141;BME280;24875;48.436;10.298;2023-06-26T06:56:43;96286.03;;;22.97;69.45
39141;BME280;24875;48.436;10.298;2023-06-26T06:59:09;96286.69;;;23.04;68.93
39141;BME280;24875;48.436;10.298;2023-06-26T07:01:36;96292.22;;;23.19;66.23
39141;BME280;24875;48.436;10.298;2023-06-26T07:04:02;96292.91;;;23.35;67.39
39141;BME280;24875;48.436;10.298;2023-06-26T07:06:29;96284.06;;;23.35;67.40
39141;BME280;24875;48.436;10.298;2023-06-26T07:08:57;96280.56;;;23.66;66.69
39141;BME280;24875;48.436;10.298;2023-06-26T07:11:24;96280.22;;;23.57;64.91
39141;BME280;24875;48.436;10.298;2023-06-26T07:13:50;96281.78;;;23.80;63.29
39141;BME280;24875;48.436;10.298;2023-06-26T07:16:16;96282.44;;;23.96;63.74
39141;BME280;24875;48.436;10.298;2023-06-26T07:18:43;96276.59;;;24.04;63.64
39141;BME280;24875;48.436;10.298;2023-06-26T07:21:10;96275.31;;;24.17;63.69
39141;BME280;24875;48.436;10.298;2023-06-26T07:23:36;96275.19;;;24.38;62.79
39141;BME280;24875;48.436;10.298;2023-06-26T07:26:04;96269.06;;;24.53;63.66
39141;BME280;24875;48.436;10.298;2023-06-26T07:28:31;96275.88;;;24.65;63.07
39141;BME280;24875;48.436;10.298;2023-06-26T07:30:57;96273.09;;;24.50;62.99
39141;BME280;24875;48.436;10.298;2023-06-26T07:33:24;96269.22;;;24.87;61.71
39141;BME280;24875;48.436;10.298;2023-06-26T07:35:50;96269.88;;;25.09;60.61
39141;BME280;24875;48.436;10.298;2023-06-26T07:38:17;96272.81;;;25.13;60.21
39141;BME280;24875;48.436;10.298;2023-06-26T07:40:43;96275.28;;;25.34;60.21
39141;BME280;24875;48.436;10.298;2023-06-26T07:43:11;96274.78;;;25.57;58.19
39141;BME280;24875;48.436;10.298;2023-06-26T07:45:37;96275.34;;;25.54;55.83
39141;BME280;24875;48.436;10.298;2023-06-26T07:48:06;96272.41;;;25.75;60.71
39141;BME280;24875;48.436;10.298;2023-06-26T07:50:32;96264.56;;;25.74;55.94
39141;BME280;24875;48.436;10.298;2023-06-26T07:52:59;96271.03;;;25.68;58.06
39141;BME280;24875;48.436;10.298;2023-06-26T07:55:25;96273.72;;;25.82;56.15
39141;BME280;24875;48.436;10.298;2023-06-26T07:57:52;96265.91;;;26.01;55.20
39141;BME280;24875;48.436;10.298;2023-06-26T08:00:21;96257.78;;;26.11;54.84
39141;BME280;24875;48.436;10.298;2023-06-26T08:02:48;96260.50;;;26.11;54.57
39141;BME280;24875;48.436;10.298;2023-06-26T08:05:14;96260.16;;;26.27;54.07
39141;BME280;24875;48.436;10.298;2023-06-26T08:07:41;96263.44;;;26.39;53.74
39141;BME280;24875;48.436;10.298;2023-06-26T08:10:08;96253.63;;;26.63;53.89
39141;BME280;24875;48.436;10.298;2023-06-26T08:12:35;96258.47;;;26.66;52.19
39141;BME280;24875;48.436;10.298;2023-06-26T08:15:06;96257.56;;;26.85;52.91
39141;BME280;24875;48.436;10.298;2023-06-26T08:17:34;96256.19;;;27.03;54.47
39141;BME280;24875;48.436;10.298;2023-06-26T08:20:01;96255.28;;;27.12;53.45
39141;BME280;24875;48.436;10.298;2023-06-26T08:22:27;96254.69;;;27.20;51.66
39141;BME280;24875;48.436;10.298;2023-06-26T08:24:54;96254.91;;;27.33;52.56
39141;BME280;24875;48.436;10.298;2023-06-26T08:27:20;96242.06;;;27.49;49.19
39141;BME280;24875;48.436;10.298;2023-06-26T08:29:47;96245.25;;;27.61;49.80
39141;BME280;24875;48.436;10.298;2023-06-26T08:32:13;96245.03;;;27.52;48.96
39141;BME280;24875;48.436;10.298;2023-06-26T08:34:41;96248.97;;;27.69;51.37
39141;BME280;24875;48.436;10.298;2023-06-26T08:37:07;96246.63;;;27.58;48.23
39141;BME280;24875;48.436;10.298;2023-06-26T08:39:35;96243.59;;;27.65;48.58
39141;BME280;24875;48.436;10.298;2023-06-26T08:42:01;96244.84;;;27.77;49.15
39141;BME280;24875;48.436;10.298;2023-06-26T08:44:27;96248.28;;;27.87;49.02
39141;BME280;24875;48.436;10.298;2023-06-26T08:46:54;96240.25;;;28.06;51.33
39141;BME280;24875;48.436;10.298;2023-06-26T08:49:25;96239.53;;;28.29;48.99
39141;BME280;24875;48.436;10.298;2023-06-26T08:52:02;96239.00;;;28.27;50.09
39141;BME280;24875;48.436;10.298;2023-06-26T08:54:36;96234.69;;;28.21;48.63
39141;BME280;24875;48.436;10.298;2023-06-26T08:57:03;96239.91;;;28.17;51.23
39141;BME280;24875;48.436;10.298;2023-06-26T08:59:32;96237.84;;;28.33;49.21
39141;BME280;24875;48.436;10.298;2023-06-26T09:01:58;96228.50;;;28.43;50.31
39141;BME280;24875;48.436;10.298;2023-06-26T09:04:25;96241.22;;;28.66;46.71
39141;BME280;24875;48.436;10.298;2023-06-26T09:06:52;96237.72;;;28.89;46.98
39141;BME280;24875;48.436;10.298;2023-06-26T09:09:19;96233.19;;;29.03;48.79
39141;BME280;24875;48.436;10.298;2023-06-26T09:11:46;96241.94;;;29.18;45.81
39141;BME280;24875;48.436;10.298;2023-06-26T09:14:13;96237.16;;;28.92;46.22
39141;BME280;24875;48.436;10.298;2023-06-26T09:16:40;96233.72;;;29.05;45.15
39141;BME280;24875;48.436;10.298;2023-06-26T09:19:09;96235.50;;;29.14;45.38
39141;BME280;24875;48.436;10.298;2023-06-26T09:21:37;96238.53;;;29.31;45.47
39141;BME280;24875;48.436;10.298;2023-06-26T09:24:06;96237.53;;;29.22;44.49
39141;BME280;24875;48.436;10.298;2023-06-26T09:26:35;96235.16;;;29.39;44.28
39141;BME280;24875;48.436;10.298;2023-06-26T09:29:02;96225.41;;;29.38;44.53
39141;BME280;24875;48.436;10.298;2023-06-26T09:31:28;96219.28;;;29.28;44.07
39141;BME280;24875;48.436;10.298;2023-06-26T09:33:57;96224.06;;;29.54;44.65
39141;BME280;24875;48.436;10.298;2023-06-26T09:36:27;96226.38;;;29.79;45.43
39141;BME280;24875;48.436;10.298;2023-06-26T09:38:54;96227.25;;;29.74;46.78
39141;BME280;24875;48.436;10.298;2023-06-26T09:41:20;96225.16;;;29.85;46.65
39141;BME280;24875;48.436;10.298;2023-06-26T09:43:49;96220.66;;;30.12;45.50
39141;BME280;24875;48.436;10.298;2023-06-26T09:46:16;96219.97;;;30.33;46.08
39141;BME280;24875;48.436;10.298;2023-06-26T09:48:43;96227.09;;;30.29;44.24
39141;BME280;24875;48.436;10.298;2023-06-26T09:51:10;96226.66;;;30.41;43.24
39141;BME280;24875;48.436;10.298;2023-06-26T09:53:36;96225.31;;;30.38;40.07
39141;BME280;24875;48.436;10.298;2023-06-26T09:56:05;96215.19;;;30.44;39.64
39141;BME280;24875;48.436;10.298;2023-06-26T09:58:32;96209.03;;;30.52;40.91
39141;BME280;24875;48.436;10.298;2023-06-26T10:01:00;96214.56;;;30.47;39.96
39141;BME280;24875;48.436;10.298;2023-06-26T10:03:27;96200.34;;;30.50;41.55
39141;BME280;24875;48.436;10.298;2023-06-26T10:05:54;96200.34;;;30.90;40.50
39141;BME280;24875;48.436;10.298;2023-06-26T10:08:21;96197.97;;;30.62;40.74
39141;BME280;24875;48.436;10.298;2023-06-26T10:10:48;96199.84;;;30.61;43.00
39141;BME280;24875;48.436;10.298;2023-06-26T10:13:16;96204.66;;;30.11;41.85
39141;BME280;24875;48.436;10.298;2023-06-26T10:15:47;96205.97;;;30.26;40.50
39141;BME280;24875;48.436;10.298;2023-06-26T10:18:18;96209.69;;;30.30;38.20
39141;BME280;24875;48.436;10.298;2023-06-26T10:20:46;96202.53;;;30.21;37.58
39141;BME280;24875;48.436;10.298;2023-06-26T10:23:14;96211.03;;;29.88;38.72
39141;BME280;24875;48.436;10.298;2023-06-26T10:25:44;96206.78;;;30.27;38.36
39141;BME280;24875;48.436;10.298;2023-06-26T10:28:13;96198.63;;;30.40;40.52
39141;BME280;24875;48.436;10.298;2023-06-26T10:30:42;96207.53;;;30.14;39.01
39141;BME280;24875;48.436;10.298;2023-06-26T10:33:11;96217.44;;;30.23;38.50
39141;BME280;24875;48.436;10.298;2023-06-26T10:35:43;96213.47;;;30.48;38.58
39141;BME280;24875;48.436;10.298;2023-06-26T10:38:10;96213.72;;;30.33;37.68
39141;BME280;24875;48.436;10.298;2023-06-26T10:40:41;96205.47;;;30.91;36.89
39141;BME280;24875;48.436;10.298;2023-06-26T10:43:08;96204.78;;;30.73;35.75
39141;BME280;24875;48.436;10.298;2023-06-26T10:45:36;96203.00;;;30.95;36.21
39141;BME280;24875;48.436;10.298;2023-06-26T10:48:03;96217.63;;;31.34;37.87
39141;BME280;24875;48.436;10.298;2023-06-26T10:50:31;96207.53;;;31.35;34.90
39141;BME280;24875;48.436;10.298;2023-06-26T10:53:16;96200.22;;;31.57;38.27
39141;BME280;24875;48.436;10.298;2023-06-26T10:55:51;96202.63;;;31.45;38.32
39141;BME280;24875;48.436;10.298;2023-06-26T10:58:29;96208.91;;;31.46;36.31
39141;BME280;24875;48.436;10.298;2023-06-26T11:01:14;96195.78;;;31.91;36.93
39141;BME280;24875;48.436;10.298;2023-06-26T11:03:43;96199.72;;;31.77;35.47
39141;BME280;24875;48.436;10.298;2023-06-26T11:06:10;96201.44;;;31.51;35.84
39141;BME280;24875;48.436;10.298;2023-06-26T11:08:48;96198.84;;;31.90;35.15
39141;BME280;24875;48.436;10.298;2023-06-26T11:11:16;96204.44;;;31.28;36.56
39141;BME280;24875;48.436;10.298;2023-06-26T11:13:45;96203.44;;;31.59;36.65
39141;BME280;24875;48.436;10.298;2023-06-26T11:16:12;96209.81;;;31.41;36.43
39141;BME280;24875;48.436;10.298;2023-06-26T11:18:39;96196.72;;;31.08;35.75
39141;BME280;24875;48.436;10.298;2023-06-26T11:21:07;96196.53;;;30.51;37.15
39141;BME280;24875;48.436;10.298;2023-06-26T11:23:34;96190.97;;;30.83;36.00
39141;BME280;24875;48.436;10.298;2023-06-26T11:26:15;96188.16;;;31.49;37.33
39141;BME280;24875;48.436;10.298;2023-06-26T11:28:49;96199.91;;;31.80;36.01
39141;BME280;24875;48.436;10.298;2023-06-26T11:31:26;96198.81;;;31.59;36.08
39141;BME280;24875;48.436;10.298;2023-06-26T11:33:53;96196.22;;;31.85;35.52
39141;BME280;24875;48.436;10.298;2023-06-26T11:36:19;96199.69;;;32.20;33.35
39141;BME280;24875;48.436;10.298;2023-06-26T11:38:46;96195.84;;;32.21;36.13
39141;BME280;24875;48.436;10.298;2023-06-26T11:41:17;96195.81;;;32.13;35.02
39141;BME280;24875;48.436;10.298;2023-06-26T11:43:44;96210.81;;;31.80;33.22
39141;BME280;24875;48.436;10.298;2023-06-26T11:46:10;96208.09;;;31.58;33.44
39141;BME280;24875;48.436;10.298;2023-06-26T11:48:37;96185.28;;;31.76;33.61
39141;BME280;24875;48.436;10.298;2023-06-26T11:51:04;96191.84;;;31.75;32.76
39141;BME280;24875;48.436;10.298;2023-06-26T11:53:30;96193.03;;;31.83;33.99
39141;BME280;24875;48.436;10.298;2023-06-26T11:55:56;96187.91;;;32.03;32.91
39141;BME280;24875;48.436;10.298;2023-06-26T11:58:24;96194.84;;;32.78;32.61
39141;BME280;24875;48.436;10.298;2023-06-26T12:00:51;96184.97;;;32.60;32.78
39141;BME280;24875;48.436;10.298;2023-06-26T12:03:17;96178.56;;;32.56;32.49
39141;BME280;24875;48.436;10.298;2023-06-26T12:05:44;96173.94;;;32.43;35.14
39141;BME280;24875;48.436;10.298;2023-06-26T12:08:11;96174.81;;;31.92;34.44
39141;BME280;24875;48.436;10.298;2023-06-26T12:10:37;96184.22;;;32.08;36.18
39141;BME280;24875;48.436;10.298;2023-06-26T12:13:04;96175.25;;;31.85;34.12
39141;BME280;24875;48.436;10.298;2023-06-26T12:15:32;96169.28;;;32.35;35.07
39141;BME280;24875;48.436;10.298;2023-06-26T12:17:58;96172.88;;;31.92;34.69
39141;BME280;24875;48.436;10.298;2023-06-26T12:20:25;96174.13;;;31.64;35.09
39141;BME280;24875;48.436;10.298;2023-06-26T12:22:56;96182.38;;;31.51;36.39
39141;BME280;24875;48.436;10.298;2023-06-26T12:25:23;96178.06;;;31.01;36.48
39141;BME280;24875;48.436;10.298;2023-06-26T12:27:49;96169.47;;;31.21;37.16
39141;BME280;24875;48.436;10.298;2023-06-26T12:30:16;96179.56;;;30.94;38.65
39141;BME280;24875;48.436;10.298;2023-06-26T12:32:45;96178.63;;;31.25;36.89
39141;BME280;24875;48.436;10.298;2023-06-26T12:35:12;96172.44;;;31.33;36.71
39141;BME280;24875;48.436;10.298;2023-06-26T12:37:41;96165.81;;;32.13;37.76
39141;BME280;24875;48.436;10.298;2023-06-26T12:40:16;96176.97;;;32.33;36.71
39141;BME280;24875;48.436;10.298;2023-06-26T12:42:42;96170.63;;;32.16;35.04
39141;BME280;24875;48.436;10.298;2023-06-26T12:45:13;96162.56;;;32.41;35.23
39141;BME280;24875;48.436;10.298;2023-06-26T12:47:40;96167.66;;;32.34;35.80
39141;BME280;24875;48.436;10.298;2023-06-26T12:50:09;96152.94;;;32.99;35.53
39141;BME280;24875;48.436;10.298;2023-06-26T12:52:35;96151.81;;;33.00;36.79